createdAt,value
2019-02-05T01:05:13.251Z,20.77
2019-02-05T01:07:54.302Z,18.77
2019-02-05T01:10:35.294Z,19.43
2019-02-05T01:13:16.393Z,21.43
2019-02-05T01:15:57.812Z,21.97
2019-02-05T01:18:39.110Z,20.23
2019-02-05T01:21:20.633Z,19.63
2019-02-05T01:24:02.135Z,20.80
2019-02-05T01:26:43.203Z,21.63
2019-02-05T01:29:24.056Z,19.97
2019-02-05T01:32:05.353Z,20.73
2019-02-05T01:34:46.895Z,19.43
2019-02-05T01:37:28.209Z,20.70
2019-02-05T01:40:09.878Z,22.63
2019-02-05T01:42:50.661Z,19.03
2019-02-05T01:45:32.158Z,21.07
2019-02-05T01:48:13.271Z,19.53
2019-02-05T01:50:54.644Z,20.60
2019-02-05T01:53:36.207Z,19.60
2019-02-05T01:56:17.584Z,22.13
2019-02-05T01:58:59.265Z,19.77
2019-02-05T02:01:39.933Z,22.57
2019-02-05T02:04:21.499Z,22.73
2019-02-05T02:07:03.251Z,21.13
2019-02-05T02:09:44.604Z,24.10
2019-02-05T02:12:26.195Z,22.10
2019-02-05T02:15:07.353Z,22.90
2019-02-05T02:17:48.101Z,24.20
2019-02-05T02:20:29.278Z,22.33
2019-02-05T02:23:10.318Z,21.67
2019-02-05T02:25:51.638Z,21.30
2019-02-05T02:28:31.187Z,22.83
2019-02-05T02:31:12.248Z,21.80
2019-02-05T02:33:53.201Z,22.93
2019-02-05T02:36:34.264Z,22.77
2019-02-05T02:39:15.496Z,22.97
2019-02-05T02:41:55.070Z,21.47
2019-02-05T02:47:44.173Z,26.40
2019-02-05T02:50:24.283Z,24.40
2019-02-05T02:53:04.563Z,22.93
2019-02-05T02:55:44.502Z,24.47
2019-02-05T02:58:23.073Z,24.10
2019-02-05T03:01:03.389Z,24.10
2019-02-05T03:03:43.774Z,23.57
2019-02-05T03:06:24.023Z,23.37
2019-02-05T03:09:07.134Z,24.30
2019-02-05T03:11:48.339Z,21.93
2019-02-05T03:14:29.883Z,24.17
2019-02-05T03:17:11.425Z,23.70
2019-02-05T03:19:52.593Z,22.07
2019-02-05T03:22:33.940Z,23.00
2019-02-05T03:25:15.381Z,22.23
2019-02-05T03:27:56.663Z,22.43
2019-02-05T03:30:38.253Z,25.70
2019-02-05T03:33:19.648Z,20.17
2019-02-05T03:36:00.283Z,20.57
2019-02-05T03:38:41.709Z,22.33
2019-02-05T03:41:23.188Z,22.07
2019-02-05T03:44:05.021Z,24.47
2019-02-05T03:46:46.674Z,24.27
2019-02-05T03:49:27.875Z,25.90
2019-02-05T03:52:09.444Z,24.33
2019-02-05T03:54:51.004Z,22.87
2019-02-05T03:57:32.361Z,25.07
2019-02-05T04:00:13.260Z,25.70
2019-02-05T04:02:54.460Z,24.60
2019-02-05T04:05:35.619Z,24.00
2019-02-05T04:08:16.978Z,21.43
2019-02-05T04:10:58.442Z,23.77
2019-02-05T04:13:39.184Z,24.47
2019-02-05T04:16:19.877Z,23.70
2019-02-05T04:19:01.027Z,22.97
2019-02-05T04:22:00.760Z,24.33
2019-02-05T04:25:08.331Z,23.93
2019-02-05T04:28:11.996Z,24.07
2019-02-05T04:31:19.727Z,24.73
2019-02-05T04:34:01.021Z,21.57
2019-02-05T04:36:42.715Z,23.40
2019-02-05T04:39:23.932Z,23.37
2019-02-05T04:42:04.976Z,22.60
2019-02-05T04:44:46.180Z,25.03
2019-02-05T04:47:27.663Z,27.73
2019-02-05T04:50:09.035Z,25.00
2019-02-05T04:52:50.608Z,32.77
2019-02-05T04:55:31.956Z,29.60
2019-02-05T04:58:12.933Z,26.40
2019-02-05T05:00:54.099Z,24.30
2019-02-05T05:03:36.936Z,24.03
2019-02-05T05:06:44.691Z,23.47
2019-02-05T05:09:26.161Z,25.97
2019-02-05T05:12:07.037Z,23.10
2019-02-05T05:14:48.405Z,24.23
2019-02-05T05:17:29.602Z,23.17
2019-02-05T05:20:10.858Z,24.80
2019-02-05T05:22:52.341Z,23.53
2019-02-05T05:25:33.092Z,27.23
2019-02-05T05:28:14.626Z,23.57
2019-02-05T05:30:56.260Z,28.00
2019-02-05T05:33:36.861Z,26.43
2019-02-05T05:36:18.331Z,25.83
2019-02-05T05:38:59.605Z,24.00
2019-02-05T05:41:40.871Z,23.47
2019-02-05T05:44:21.912Z,26.20
2019-02-05T05:47:03.384Z,25.73
2019-02-05T05:49:44.512Z,27.13
2019-02-05T05:52:26.013Z,24.60
2019-02-05T05:55:07.293Z,23.37
2019-02-05T05:57:48.614Z,22.93
2019-02-05T06:00:30.085Z,26.33
2019-02-05T06:03:11.098Z,23.37
2019-02-05T06:05:52.687Z,24.23
2019-02-05T06:08:33.606Z,23.17
2019-02-05T06:11:15.034Z,26.63
2019-02-05T06:13:56.029Z,23.57
2019-02-05T06:16:37.270Z,24.57
2019-02-05T06:19:18.006Z,29.20
2019-02-05T06:21:58.099Z,25.90
2019-02-05T06:24:39.433Z,26.57
2019-02-05T06:27:20.885Z,26.67
2019-02-05T06:30:01.873Z,26.30
2019-02-05T06:32:43.212Z,25.53
2019-02-05T06:35:24.873Z,25.53
2019-02-05T06:38:06.073Z,28.00
2019-02-05T06:40:47.218Z,29.67
2019-02-05T06:43:28.663Z,28.00
2019-02-05T06:46:10.571Z,26.37
2019-02-05T06:48:51.701Z,26.47
2019-02-05T06:51:32.900Z,30.60
2019-02-05T06:54:14.096Z,27.90
2019-02-05T06:56:55.647Z,30.27
2019-02-05T06:59:36.299Z,28.17
2019-02-05T07:02:17.915Z,26.00
2019-02-05T07:04:59.286Z,26.77
2019-02-05T07:07:40.833Z,24.43
2019-02-05T07:10:23.267Z,25.83
2019-02-05T07:13:04.866Z,26.83
2019-02-05T07:15:46.263Z,27.07
2019-02-05T07:18:27.764Z,25.33
2019-02-05T07:21:08.983Z,24.23
2019-02-05T07:23:49.245Z,25.90
2019-02-05T07:29:37.883Z,27.90
2019-02-05T07:32:19.685Z,29.77
2019-02-05T07:35:00.953Z,23.70
2019-02-05T07:37:42.456Z,26.13
2019-02-05T07:40:23.971Z,26.77
2019-02-05T07:43:04.690Z,26.90
2019-02-05T07:45:46.080Z,27.73
2019-02-05T07:48:30.348Z,24.47
2019-02-05T07:51:10.712Z,28.47
2019-02-05T07:53:52.109Z,26.57
2019-02-05T07:56:33.315Z,29.53
2019-02-05T07:59:14.981Z,25.07
2019-02-05T08:01:56.259Z,23.67
2019-02-05T08:04:37.460Z,24.20
2019-02-05T08:07:19.018Z,18.00
2019-02-05T08:10:00.700Z,29.03
2019-02-05T08:12:42.186Z,28.50
2019-02-05T08:15:23.953Z,31.33
2019-02-05T08:18:05.532Z,30.17
2019-02-05T08:20:47.003Z,24.77
2019-02-05T08:23:28.377Z,26.00
2019-02-05T08:26:09.638Z,31.33
2019-02-05T08:28:50.806Z,30.03
2019-02-05T08:31:32.093Z,27.43
2019-02-05T08:34:12.827Z,28.00
2019-02-05T08:36:53.557Z,28.03
2019-02-05T08:39:35.126Z,30.17
2019-02-05T08:42:16.420Z,29.00
2019-02-05T08:44:57.770Z,31.77
2019-02-05T08:47:39.118Z,28.67
2019-02-05T08:50:20.458Z,27.90
2019-02-05T08:53:01.893Z,29.20
2019-02-05T08:55:42.224Z,25.30
2019-02-05T09:01:31.287Z,28.67
2019-02-05T09:04:12.632Z,26.10
2019-02-05T09:09:53.008Z,32.63
2019-02-05T09:12:34.217Z,29.73
2019-02-05T09:15:13.893Z,28.37
2019-02-05T09:21:02.908Z,27.67
2019-02-05T09:23:43.714Z,30.53
2019-02-05T09:26:25.342Z,28.23
2019-02-05T09:29:06.437Z,24.80
2019-02-05T09:31:47.805Z,27.67
2019-02-05T09:34:27.379Z,26.87
2019-02-05T09:37:08.216Z,25.13
2019-02-05T09:39:49.875Z,24.00
2019-02-05T09:42:31.192Z,25.73
2019-02-05T09:45:12.408Z,21.00
2019-02-05T09:47:53.853Z,24.00
2019-02-05T09:50:44.207Z,30.63
2019-02-05T09:53:17.680Z,23.77
2019-02-05T09:55:58.452Z,20.53
2019-02-05T09:58:39.857Z,24.00
2019-02-05T10:01:21.328Z,25.53
2019-02-05T10:04:02.560Z,15.03
2019-02-05T10:06:42.514Z,21.20
2019-02-05T10:09:23.494Z,20.07
2019-02-05T10:12:04.996Z,17.50
2019-02-05T10:14:45.997Z,18.40
2019-02-05T10:17:27.255Z,22.60
2019-02-05T10:20:08.732Z,21.03
2019-02-05T10:22:50.351Z,19.47
2019-02-05T10:25:31.555Z,19.23
2019-02-05T10:28:12.938Z,19.67
2019-02-05T10:30:54.098Z,21.63
2019-02-05T10:33:33.754Z,19.57
2019-02-05T10:36:15.125Z,22.63
2019-02-05T10:38:56.794Z,22.43
2019-02-05T10:41:38.378Z,20.47
2019-02-05T10:44:19.840Z,17.70
2019-02-05T10:47:01.190Z,19.77
2019-02-05T10:49:42.791Z,20.57
2019-02-05T10:52:26.709Z,19.47
2019-02-05T10:55:07.769Z,21.63
2019-02-05T10:57:48.806Z,21.27
2019-02-05T11:00:29.532Z,24.33
2019-02-05T11:03:10.924Z,23.17
2019-02-05T11:05:52.245Z,23.70
2019-02-05T11:08:33.419Z,23.07
2019-02-05T11:11:14.852Z,22.80
2019-02-05T11:13:55.546Z,22.30
2019-02-05T11:16:36.664Z,23.37
2019-02-05T11:19:18.183Z,22.17
2019-02-05T11:21:59.643Z,23.33
2019-02-05T11:24:41.219Z,24.20
2019-02-05T11:27:22.760Z,20.10
2019-02-05T11:30:04.202Z,21.53
2019-02-05T11:32:45.515Z,21.57
2019-02-05T11:35:27.153Z,20.57
2019-02-05T11:38:08.765Z,19.87
2019-02-05T11:40:49.754Z,20.23
2019-02-05T11:43:31.064Z,21.77
2019-02-05T11:46:12.563Z,18.90
2019-02-05T11:48:54.102Z,17.37
2019-02-05T11:51:35.414Z,14.07
2019-02-05T11:54:16.696Z,17.47
2019-02-05T11:56:57.964Z,13.77
2019-02-05T11:59:39.472Z,17.63
2019-02-05T12:02:20.508Z,19.43
2019-02-05T12:05:02.043Z,17.57
2019-02-05T12:07:43.243Z,14.47
2019-02-05T12:10:24.739Z,15.90
2019-02-05T12:13:05.020Z,19.97
2019-02-05T12:15:53.552Z,19.40
2019-02-05T12:18:36.459Z,14.73
2019-02-05T12:21:17.718Z,15.90
2019-02-05T12:23:58.715Z,16.53
2019-02-05T12:26:40.263Z,16.60
2019-02-05T12:29:21.675Z,19.27
2019-02-05T12:32:03.086Z,16.90
2019-02-05T12:34:44.138Z,16.47
2019-02-05T12:37:25.433Z,15.57
2019-02-05T12:40:06.998Z,14.50
2019-02-05T12:42:48.574Z,13.90
2019-02-05T12:45:30.187Z,16.83
2019-02-05T12:48:11.648Z,13.87
2019-02-05T12:50:52.941Z,16.10
2019-02-05T12:53:34.491Z,12.67
2019-02-05T12:56:15.430Z,13.07
2019-02-05T12:58:56.583Z,14.83
2019-02-05T13:01:37.816Z,16.20
2019-02-05T13:04:19.383Z,12.33
2019-02-05T13:07:00.398Z,13.97
2019-02-05T13:09:41.709Z,17.10
2019-02-05T13:12:23.268Z,14.37
2019-02-05T13:15:04.960Z,13.40
2019-02-05T13:17:46.078Z,13.10
2019-02-05T13:20:26.747Z,12.73
2019-02-05T13:23:07.872Z,11.93
2019-02-05T13:25:49.578Z,12.77
2019-02-05T13:28:30.905Z,13.50
2019-02-05T13:31:12.391Z,13.97
2019-02-05T13:33:54.014Z,16.00
2019-02-05T13:36:34.864Z,12.53
2019-02-05T13:39:14.443Z,12.67
2019-02-05T13:42:03.033Z,12.73
2019-02-05T13:44:44.213Z,12.37
2019-02-05T13:47:25.956Z,14.47
2019-02-05T13:50:07.184Z,12.20
2019-02-05T13:52:48.136Z,11.07
2019-02-05T13:55:28.817Z,10.17
2019-02-05T13:58:08.497Z,11.87
2019-02-05T14:00:49.022Z,8.97
2019-02-05T14:03:37.576Z,10.97
2019-02-05T14:06:18.335Z,8.50
2019-02-05T14:09:10.015Z,11.63
2019-02-05T14:11:42.090Z,10.50
2019-02-05T14:14:23.229Z,11.53
2019-02-05T14:17:03.981Z,8.97
2019-02-05T14:19:45.586Z,21.23
2019-02-05T14:22:27.023Z,9.23
2019-02-05T14:25:08.464Z,7.33
2019-02-05T14:27:49.999Z,8.53
2019-02-05T14:30:31.376Z,8.20
2019-02-05T14:33:12.811Z,9.97
2019-02-05T14:35:54.466Z,9.67
2019-02-05T14:38:35.239Z,10.87
2019-02-05T14:41:16.907Z,9.47
2019-02-05T14:43:57.697Z,9.60
2019-02-05T14:46:38.999Z,11.40
2019-02-05T14:49:20.542Z,10.43
2019-02-05T14:52:01.270Z,8.77
2019-02-05T14:54:41.964Z,7.90
2019-02-05T14:57:23.357Z,7.67
2019-02-05T15:00:04.046Z,12.87
2019-02-05T15:02:45.270Z,12.67
2019-02-05T15:05:26.284Z,12.10
2019-02-05T15:08:07.871Z,10.67
2019-02-05T15:10:49.447Z,11.83
2019-02-05T15:13:31.035Z,10.03
2019-02-05T15:16:11.935Z,12.40
2019-02-05T15:18:53.138Z,11.07
2019-02-05T15:21:34.736Z,18.83
2019-02-05T15:24:15.819Z,12.07
2019-02-05T15:26:57.344Z,14.20
2019-02-05T15:29:37.298Z,14.13
2019-02-05T15:32:37.273Z,13.43
2019-02-05T15:35:19.773Z,13.57
2019-02-05T15:38:00.960Z,11.03
2019-02-05T15:40:42.253Z,9.80
2019-02-05T15:43:21.859Z,12.63
2019-02-05T15:46:10.492Z,14.13
2019-02-05T15:48:51.386Z,9.63
2019-02-05T15:51:32.050Z,12.47
2019-02-05T15:54:15.024Z,17.97
2019-02-05T15:56:59.213Z,12.07
2019-02-05T15:59:40.774Z,13.57
2019-02-05T16:02:20.286Z,16.17
2019-02-05T16:05:01.420Z,13.10
2019-02-05T16:07:42.856Z,12.47
2019-02-05T16:10:24.246Z,10.70
2019-02-05T16:13:05.632Z,12.20
2019-02-05T16:15:46.850Z,17.83
2019-02-05T16:18:28.186Z,13.30
2019-02-05T16:21:09.883Z,12.07
2019-02-05T16:23:51.241Z,10.73
2019-02-05T16:26:32.525Z,12.30
2019-02-05T16:29:14.008Z,11.23
2019-02-05T16:31:55.076Z,12.07
2019-02-05T16:34:36.690Z,10.70
2019-02-05T16:37:17.888Z,15.73
2019-02-05T16:39:59.139Z,9.03
2019-02-05T16:42:38.910Z,9.13
2019-02-05T16:45:27.583Z,12.07
2019-02-05T16:48:08.394Z,12.43
2019-02-05T16:50:49.606Z,15.47
2019-02-05T16:53:30.918Z,11.70
2019-02-05T16:56:12.107Z,16.07
2019-02-05T16:58:53.527Z,12.33
2019-02-05T17:01:34.390Z,10.10
2019-02-05T17:04:15.740Z,14.87
2019-02-05T17:06:57.091Z,14.00
2019-02-05T17:09:38.116Z,14.67
2019-02-05T17:12:19.359Z,11.47
2019-02-05T17:15:00.591Z,10.27
2019-02-05T17:17:41.876Z,11.50
2019-02-05T17:20:23.057Z,11.70
2019-02-05T17:23:04.342Z,13.00
2019-02-05T17:25:45.799Z,14.33
2019-02-05T17:28:26.481Z,13.83
2019-02-05T17:31:06.108Z,10.10
2019-02-05T17:36:54.599Z,9.30
2019-02-05T17:39:35.745Z,14.03
2019-02-05T17:42:17.334Z,18.37
2019-02-05T17:44:58.283Z,9.47
2019-02-05T17:47:39.478Z,11.23
2019-02-05T17:50:20.913Z,9.67
2019-02-05T17:53:02.237Z,10.07
2019-02-05T17:55:43.018Z,15.47
2019-02-05T17:58:24.475Z,12.53
2019-02-05T18:04:13.989Z,9.03
2019-02-05T18:07:02.679Z,10.73
2019-02-05T18:09:43.761Z,12.13
2019-02-05T18:12:25.365Z,11.37
2019-02-05T18:15:06.880Z,12.80
2019-02-05T18:17:48.260Z,8.80
2019-02-05T18:20:29.753Z,11.27
2019-02-05T18:23:10.944Z,11.57
2019-02-05T18:25:52.448Z,13.53
2019-02-05T18:28:33.913Z,9.67
2019-02-05T18:31:15.200Z,12.03
2019-02-05T18:33:56.697Z,14.80
2019-02-05T18:36:38.241Z,12.67
2019-02-05T18:39:19.863Z,13.50
2019-02-05T18:41:59.390Z,12.60
2019-02-05T18:44:48.312Z,10.93
2019-02-05T18:47:30.801Z,13.77
2019-02-05T18:50:12.476Z,10.70
2019-02-05T18:52:53.813Z,10.93
2019-02-05T18:55:33.616Z,11.13
2019-02-05T18:58:14.804Z,13.20
2019-02-05T19:00:56.042Z,15.80
2019-02-05T19:03:37.563Z,16.10
2019-02-05T19:06:19.121Z,14.53
2019-02-05T19:09:00.470Z,16.37
2019-02-05T19:11:41.893Z,15.33
2019-02-05T19:14:23.399Z,12.27
2019-02-05T19:17:03.825Z,13.17
2019-02-05T19:19:44.936Z,13.40
2019-02-05T19:22:26.333Z,15.23
2019-02-05T19:28:14.475Z,15.43
2019-02-05T19:37:06.469Z,15.30
2019-02-05T19:39:48.099Z,14.97
2019-02-05T19:42:29.177Z,13.87
2019-02-05T19:45:29.525Z,17.20
2019-02-05T19:51:05.979Z,16.03
2019-02-05T19:53:47.436Z,16.30
2019-02-05T19:56:37.954Z,14.60
2019-02-05T19:59:11.112Z,14.13
2019-02-05T20:01:52.244Z,16.23
2019-02-05T20:04:33.858Z,16.30
2019-02-05T20:07:15.532Z,17.60
2019-02-05T20:09:57.054Z,16.07
2019-02-05T20:12:38.746Z,16.60
2019-02-05T20:15:20.046Z,13.73
2019-02-05T20:18:01.001Z,18.67
2019-02-05T20:20:42.467Z,15.90
2019-02-05T20:23:23.716Z,14.90
2019-02-05T20:26:05.210Z,16.53
2019-02-05T20:28:46.378Z,22.33
2019-02-05T20:31:27.537Z,15.83
2019-02-05T20:34:09.135Z,16.70
2019-02-05T20:36:53.723Z,16.23
2019-02-05T20:39:35.185Z,14.80
2019-02-05T20:42:16.258Z,15.83
2019-02-05T20:44:57.659Z,14.00
2019-02-05T20:47:38.770Z,13.17
2019-02-05T20:50:20.039Z,14.90
2019-02-05T20:53:01.127Z,15.03
2019-02-05T20:55:42.934Z,15.17
2019-02-05T20:58:24.417Z,13.93
2019-02-05T21:01:05.623Z,18.37
2019-02-05T21:03:47.221Z,12.77
2019-02-05T21:06:28.708Z,15.03
2019-02-05T21:09:10.021Z,16.40
2019-02-05T21:11:50.956Z,16.77
2019-02-05T21:14:31.878Z,16.20
2019-02-05T21:17:13.332Z,14.57
2019-02-05T21:19:54.849Z,15.00
2019-02-05T21:22:35.782Z,15.67
2019-02-05T21:25:17.260Z,15.40
2019-02-05T21:27:58.636Z,14.90
2019-02-05T21:30:39.532Z,17.37
2019-02-05T21:33:19.696Z,14.43
2019-02-05T21:39:08.098Z,17.07
2019-02-05T21:41:48.993Z,15.77
2019-02-05T21:44:30.040Z,16.60
2019-02-05T21:47:11.518Z,17.63
2019-02-05T21:49:52.601Z,19.80
2019-02-05T21:52:34.057Z,26.70
2019-02-05T21:55:15.580Z,17.03
2019-02-05T21:57:56.316Z,17.13
2019-02-05T22:00:37.480Z,17.60
2019-02-05T22:03:19.216Z,17.87
2019-02-05T22:06:00.221Z,17.80
2019-02-05T22:08:41.656Z,18.40
2019-02-05T22:11:21.331Z,20.20
2019-02-05T22:17:18.321Z,26.20
2019-02-05T22:19:57.114Z,24.53
2019-02-05T22:22:37.903Z,22.83
2019-02-05T22:25:19.210Z,29.40
2019-02-05T22:28:00.933Z,28.43
2019-02-05T22:30:42.417Z,30.33
2019-02-05T22:33:23.535Z,34.07
2019-02-05T22:36:05.078Z,29.17
2019-02-05T22:38:46.404Z,32.03
2019-02-05T22:41:27.801Z,33.50
2019-02-05T22:44:09.371Z,36.57
2019-02-05T22:46:50.931Z,37.87
2019-02-05T22:49:32.393Z,37.87
2019-02-05T22:52:13.976Z,36.77
2019-02-05T22:54:55.160Z,36.23
2019-02-05T22:57:36.717Z,37.33
2019-02-05T23:00:18.223Z,38.47
2019-02-05T23:02:59.486Z,37.23
2019-02-05T23:05:40.106Z,43.67
2019-02-05T23:08:21.827Z,38.67
2019-02-05T23:22:57.245Z,49.20
2019-02-05T23:25:38.732Z,47.23
2019-02-05T23:28:19.658Z,45.43
2019-02-05T23:31:01.007Z,42.17
2019-02-05T23:33:44.602Z,40.03
2019-02-05T23:36:24.458Z,46.60
2019-02-05T23:39:05.644Z,44.90
2019-02-05T23:41:47.026Z,44.23
2019-02-05T23:44:28.512Z,40.83
2019-02-05T23:47:09.993Z,41.10
2019-02-05T23:49:51.085Z,36.10
2019-02-05T23:52:32.483Z,38.13
2019-02-05T23:55:14.149Z,37.43
2019-02-05T23:57:55.531Z,37.83
